sensor_id;sensor_type;location;lat;lon;timestamp;temperature;humidity
28530;DHT22;15737;49.760;6.632;2022-10-16T00:02:19;14.20;99.90
28530;DHT22;15737;49.760;6.632;2022-10-16T00:04:44;14.30;99.90
28530;DHT22;15737;49.760;6.632;2022-10-16T00:07:10;14.20;99.90
28530;DHT22;15737;49.760;6.632;2022-10-16T00:09:35;14.20;99.90
28530;DHT22;15737;49.760;6.632;2022-10-16T00:14:26;14.10;99.90
28530;DHT22;15737;49.760;6.632;2022-10-16T00:16:52;14.10;99.90
28530;DHT22;15737;49.760;6.632;2022-10-16T00:19:17;14.20;99.90
28530;DHT22;15737;49.760;6.632;2022-10-16T00:21:43;14.20;99.90
28530;DHT22;15737;49.760;6.632;2022-10-16T00:24:09;14.30;99.90
28530;DHT22;15737;49.760;6.632;2022-10-16T00:26:36;14.30;99.90
28530;DHT22;15737;49.760;6.632;2022-10-16T00:29:03;14.30;99.90
28530;DHT22;15737;49.760;6.632;2022-10-16T00:31:29;14.30;99.90
28530;DHT22;15737;49.760;6.632;2022-10-16T00:33:55;14.30;99.90
28530;DHT22;15737;49.760;6.632;2022-10-16T00:36:23;14.20;99.90
28530;DHT22;15737;49.760;6.632;2022-10-16T00:38:56;14.20;99.90
28530;DHT22;15737;49.760;6.632;2022-10-16T00:41:23;14.30;99.90
28530;DHT22;15737;49.760;6.632;2022-10-16T00:46:26;14.30;99.90
28530;DHT22;15737;49.760;6.632;2022-10-16T00:49:05;14.30;99.90
28530;DHT22;15737;49.760;6.632;2022-10-16T00:54:32;14.20;99.90
28530;DHT22;15737;49.760;6.632;2022-10-16T00:57:01;14.10;99.90
28530;DHT22;15737;49.760;6.632;2022-10-16T00:59:33;13.90;99.90
28530;DHT22;15737;49.760;6.632;2022-10-16T01:02:01;13.90;99.90
28530;DHT22;15737;49.760;6.632;2022-10-16T01:04:32;13.90;99.90
28530;DHT22;15737;49.760;6.632;2022-10-16T01:07:14;13.90;99.90
28530;DHT22;15737;49.760;6.632;2022-10-16T01:10:02;13.90;99.90
28530;DHT22;15737;49.760;6.632;2022-10-16T01:12:45;13.90;99.90
28530;DHT22;15737;49.760;6.632;2022-10-16T01:18:18;13.80;99.90
28530;DHT22;15737;49.760;6.632;2022-10-16T01:21:08;13.80;99.90
28530;DHT22;15737;49.760;6.632;2022-10-16T01:27:05;13.70;99.90
28530;DHT22;15737;49.760;6.632;2022-10-16T01:35:11;13.70;99.90
28530;DHT22;15737;49.760;6.632;2022-10-16T01:37:40;13.60;99.90
28530;DHT22;15737;49.760;6.632;2022-10-16T01:40:11;13.70;99.90
28530;DHT22;15737;49.760;6.632;2022-10-16T01:42:41;13.60;99.90
28530;DHT22;15737;49.760;6.632;2022-10-16T01:47:37;13.70;99.90
28530;DHT22;15737;49.760;6.632;2022-10-16T01:50:04;13.70;99.90
28530;DHT22;15737;49.760;6.632;2022-10-16T01:52:33;13.70;99.90
28530;DHT22;15737;49.760;6.632;2022-10-16T01:55:00;13.70;99.90
28530;DHT22;15737;49.760;6.632;2022-10-16T01:57:29;13.70;99.90
28530;DHT22;15737;49.760;6.632;2022-10-16T02:00:00;13.70;99.90
28530;DHT22;15737;49.760;6.632;2022-10-16T02:02:28;13.70;99.90
28530;DHT22;15737;49.760;6.632;2022-10-16T02:05:00;13.70;99.90
28530;DHT22;15737;49.760;6.632;2022-10-16T02:07:27;13.70;99.90
28530;DHT22;15737;49.760;6.632;2022-10-16T02:09:52;13.70;99.90
28530;DHT22;15737;49.760;6.632;2022-10-16T02:12:26;13.60;99.90
28530;DHT22;15737;49.760;6.632;2022-10-16T02:14:54;13.60;99.90
28530;DHT22;15737;49.760;6.632;2022-10-16T02:17:20;13.60;99.90
28530;DHT22;15737;49.760;6.632;2022-10-16T02:19:48;13.60;99.90
28530;DHT22;15737;49.760;6.632;2022-10-16T02:22:30;13.60;99.90
28530;DHT22;15737;49.760;6.632;2022-10-16T02:25:10;13.60;99.90
28530;DHT22;15737;49.760;6.632;2022-10-16T02:27:57;13.60;99.90
28530;DHT22;15737;49.760;6.632;2022-10-16T02:30:33;13.60;99.90
28530;DHT22;15737;49.760;6.632;2022-10-16T02:33:01;13.60;99.90
28530;DHT22;15737;49.760;6.632;2022-10-16T02:35:28;13.60;99.90
28530;DHT22;15737;49.760;6.632;2022-10-16T02:37:55;13.50;99.90
28530;DHT22;15737;49.760;6.632;2022-10-16T02:40:22;13.60;99.90
28530;DHT22;15737;49.760;6.632;2022-10-16T02:42:51;13.60;99.90
28530;DHT22;15737;49.760;6.632;2022-10-16T02:45:17;13.60;99.90
28530;DHT22;15737;49.760;6.632;2022-10-16T02:47:43;13.60;99.90
28530;DHT22;15737;49.760;6.632;2022-10-16T02:50:09;13.60;99.90
28530;DHT22;15737;49.760;6.632;2022-10-16T02:52:35;13.60;99.90
28530;DHT22;15737;49.760;6.632;2022-10-16T02:55:00;13.60;99.90
28530;DHT22;15737;49.760;6.632;2022-10-16T02:57:26;13.60;99.90
28530;DHT22;15737;49.760;6.632;2022-10-16T02:59:51;13.60;99.90
28530;DHT22;15737;49.760;6.632;2022-10-16T03:02:17;13.60;99.90
28530;DHT22;15737;49.760;6.632;2022-10-16T03:04:42;13.60;99.90
28530;DHT22;15737;49.760;6.632;2022-10-16T03:07:08;13.70;99.90
28530;DHT22;15737;49.760;6.632;2022-10-16T03:09:34;13.70;99.90
28530;DHT22;15737;49.760;6.632;2022-10-16T03:11:59;13.70;99.90
28530;DHT22;15737;49.760;6.632;2022-10-16T03:14:25;13.70;99.90
28530;DHT22;15737;49.760;6.632;2022-10-16T03:16:50;13.70;99.90
28530;DHT22;15737;49.760;6.632;2022-10-16T03:19:16;13.70;99.90
28530;DHT22;15737;49.760;6.632;2022-10-16T03:21:42;13.70;99.90
28530;DHT22;15737;49.760;6.632;2022-10-16T03:24:08;13.70;99.90
28530;DHT22;15737;49.760;6.632;2022-10-16T03:26:33;13.70;99.90
28530;DHT22;15737;49.760;6.632;2022-10-16T03:28:59;13.70;99.90
28530;DHT22;15737;49.760;6.632;2022-10-16T03:31:24;13.70;99.90
28530;DHT22;15737;49.760;6.632;2022-10-16T03:33:50;13.70;99.90
28530;DHT22;15737;49.760;6.632;2022-10-16T03:36:15;13.70;99.90
28530;DHT22;15737;49.760;6.632;2022-10-16T03:38:43;13.70;99.90
28530;DHT22;15737;49.760;6.632;2022-10-16T03:41:09;13.70;99.90
28530;DHT22;15737;49.760;6.632;2022-10-16T03:43:34;13.70;99.90
28530;DHT22;15737;49.760;6.632;2022-10-16T03:46:00;13.70;99.90
28530;DHT22;15737;49.760;6.632;2022-10-16T03:48:25;13.70;99.90
28530;DHT22;15737;49.760;6.632;2022-10-16T03:50:51;13.70;99.90
28530;DHT22;15737;49.760;6.632;2022-10-16T03:53:17;13.80;99.90
28530;DHT22;15737;49.760;6.632;2022-10-16T03:55:43;13.80;99.90
28530;DHT22;15737;49.760;6.632;2022-10-16T03:58:09;13.80;99.90
28530;DHT22;15737;49.760;6.632;2022-10-16T04:00:34;13.80;99.90
28530;DHT22;15737;49.760;6.632;2022-10-16T04:03:03;13.80;99.90
28530;DHT22;15737;49.760;6.632;2022-10-16T04:05:29;13.80;99.90
28530;DHT22;15737;49.760;6.632;2022-10-16T04:07:54;13.80;99.90
28530;DHT22;15737;49.760;6.632;2022-10-16T04:10:20;13.80;99.90
28530;DHT22;15737;49.760;6.632;2022-10-16T04:12:45;13.90;99.90
28530;DHT22;15737;49.760;6.632;2022-10-16T04:15:11;13.90;99.90
28530;DHT22;15737;49.760;6.632;2022-10-16T04:17:37;13.90;99.90
28530;DHT22;15737;49.760;6.632;2022-10-16T04:20:03;13.90;99.90
28530;DHT22;15737;49.760;6.632;2022-10-16T04:22:28;13.90;99.90
28530;DHT22;15737;49.760;6.632;2022-10-16T04:24:54;13.90;99.90
28530;DHT22;15737;49.760;6.632;2022-10-16T04:27:34;13.90;99.90
28530;DHT22;15737;49.760;6.632;2022-10-16T04:30:00;13.90;99.90
28530;DHT22;15737;49.760;6.632;2022-10-16T04:32:26;14.00;99.90
28530;DHT22;15737;49.760;6.632;2022-10-16T04:37:25;14.00;99.90
28530;DHT22;15737;49.760;6.632;2022-10-16T04:39:51;14.10;99.90
28530;DHT22;15737;49.760;6.632;2022-10-16T04:42:16;14.00;99.90
28530;DHT22;15737;49.760;6.632;2022-10-16T04:44:42;14.00;99.90
28530;DHT22;15737;49.760;6.632;2022-10-16T04:47:08;14.00;99.90
28530;DHT22;15737;49.760;6.632;2022-10-16T04:49:33;14.00;99.90
28530;DHT22;15737;49.760;6.632;2022-10-16T04:51:59;14.00;99.90
28530;DHT22;15737;49.760;6.632;2022-10-16T04:54:24;14.00;99.90
28530;DHT22;15737;49.760;6.632;2022-10-16T04:56:50;13.90;99.90
28530;DHT22;15737;49.760;6.632;2022-10-16T04:59:18;13.90;99.90
28530;DHT22;15737;49.760;6.632;2022-10-16T05:01:43;13.90;99.90
28530;DHT22;15737;49.760;6.632;2022-10-16T05:04:09;13.80;99.90
28530;DHT22;15737;49.760;6.632;2022-10-16T05:06:35;13.70;99.90
28530;DHT22;15737;49.760;6.632;2022-10-16T05:09:01;13.70;99.90
28530;DHT22;15737;49.760;6.632;2022-10-16T05:11:27;13.70;99.90
28530;DHT22;15737;49.760;6.632;2022-10-16T05:13:53;13.70;99.90
28530;DHT22;15737;49.760;6.632;2022-10-16T05:16:18;13.60;99.90
28530;DHT22;15737;49.760;6.632;2022-10-16T05:18:43;13.60;99.90
28530;DHT22;15737;49.760;6.632;2022-10-16T05:21:12;13.60;99.90
28530;DHT22;15737;49.760;6.632;2022-10-16T05:23:46;13.60;99.90
28530;DHT22;15737;49.760;6.632;2022-10-16T05:26:12;13.50;99.90
28530;DHT22;15737;49.760;6.632;2022-10-16T05:28:37;13.60;99.90
28530;DHT22;15737;49.760;6.632;2022-10-16T05:31:07;13.50;99.90
28530;DHT22;15737;49.760;6.632;2022-10-16T05:33:33;13.50;99.90
28530;DHT22;15737;49.760;6.632;2022-10-16T05:36:07;13.50;99.90
28530;DHT22;15737;49.760;6.632;2022-10-16T05:38:37;13.50;99.90
28530;DHT22;15737;49.760;6.632;2022-10-16T05:41:04;13.50;99.90
28530;DHT22;15737;49.760;6.632;2022-10-16T05:43:30;13.50;99.90
28530;DHT22;15737;49.760;6.632;2022-10-16T05:46:02;13.50;99.90
28530;DHT22;15737;49.760;6.632;2022-10-16T05:48:28;13.50;99.90
28530;DHT22;15737;49.760;6.632;2022-10-16T05:50:58;13.50;99.90
28530;DHT22;15737;49.760;6.632;2022-10-16T05:53:24;13.50;99.90
28530;DHT22;15737;49.760;6.632;2022-10-16T05:55:57;13.40;99.90
28530;DHT22;15737;49.760;6.632;2022-10-16T05:58:24;13.50;99.90
28530;DHT22;15737;49.760;6.632;2022-10-16T06:00:58;13.50;99.90
28530;DHT22;15737;49.760;6.632;2022-10-16T06:03:24;13.50;99.90
28530;DHT22;15737;49.760;6.632;2022-10-16T06:05:49;13.50;99.90
28530;DHT22;15737;49.760;6.632;2022-10-16T06:08:15;13.50;99.90
28530;DHT22;15737;49.760;6.632;2022-10-16T06:10:41;13.50;99.90
28530;DHT22;15737;49.760;6.632;2022-10-16T06:13:07;13.50;99.90
28530;DHT22;15737;49.760;6.632;2022-10-16T06:15:32;13.50;99.90
28530;DHT22;15737;49.760;6.632;2022-10-16T06:18:01;13.50;99.90
28530;DHT22;15737;49.760;6.632;2022-10-16T06:20:36;13.50;99.90
28530;DHT22;15737;49.760;6.632;2022-10-16T06:23:03;13.60;99.90
28530;DHT22;15737;49.760;6.632;2022-10-16T06:25:32;13.60;99.90
28530;DHT22;15737;49.760;6.632;2022-10-16T06:27:57;13.60;99.90
28530;DHT22;15737;49.760;6.632;2022-10-16T06:30:23;13.60;99.90
28530;DHT22;15737;49.760;6.632;2022-10-16T06:32:48;13.60;99.90
28530;DHT22;15737;49.760;6.632;2022-10-16T06:35:14;13.70;99.90
28530;DHT22;15737;49.760;6.632;2022-10-16T06:37:39;13.70;99.90
28530;DHT22;15737;49.760;6.632;2022-10-16T06:40:05;13.70;99.90
28530;DHT22;15737;49.760;6.632;2022-10-16T06:42:31;13.70;99.90
28530;DHT22;15737;49.760;6.632;2022-10-16T06:44:57;13.60;99.90
28530;DHT22;15737;49.760;6.632;2022-10-16T06:47:22;13.60;99.90
28530;DHT22;15737;49.760;6.632;2022-10-16T06:49:48;13.70;99.90
28530;DHT22;15737;49.760;6.632;2022-10-16T06:52:13;13.70;99.90
28530;DHT22;15737;49.760;6.632;2022-10-16T06:54:39;13.80;99.90
28530;DHT22;15737;49.760;6.632;2022-10-16T06:57:04;13.80;99.90
28530;DHT22;15737;49.760;6.632;2022-10-16T06:59:30;13.90;99.90
28530;DHT22;15737;49.760;6.632;2022-10-16T07:01:55;14.00;99.90
28530;DHT22;15737;49.760;6.632;2022-10-16T07:04:21;14.00;99.90
28530;DHT22;15737;49.760;6.632;2022-10-16T07:06:46;14.10;99.90
28530;DHT22;15737;49.760;6.632;2022-10-16T07:09:12;14.10;99.90
28530;DHT22;15737;49.760;6.632;2022-10-16T07:11:39;14.20;99.90
28530;DHT22;15737;49.760;6.632;2022-10-16T07:14:16;14.20;99.90
28530;DHT22;15737;49.760;6.632;2022-10-16T07:16:41;14.20;99.90
28530;DHT22;15737;49.760;6.632;2022-10-16T07:19:08;14.20;99.90
28530;DHT22;15737;49.760;6.632;2022-10-16T07:21:34;14.30;99.90
28530;DHT22;15737;49.760;6.632;2022-10-16T07:24:10;14.30;99.90
28530;DHT22;15737;49.760;6.632;2022-10-16T07:26:36;14.30;99.90
28530;DHT22;15737;49.760;6.632;2022-10-16T07:29:05;14.20;99.90
28530;DHT22;15737;49.760;6.632;2022-10-16T07:31:30;14.20;99.90
28530;DHT22;15737;49.760;6.632;2022-10-16T07:33:58;14.30;99.90
28530;DHT22;15737;49.760;6.632;2022-10-16T07:36:24;14.40;99.90
28530;DHT22;15737;49.760;6.632;2022-10-16T07:38:53;14.50;99.90
28530;DHT22;15737;49.760;6.632;2022-10-16T07:41:19;14.70;99.90
28530;DHT22;15737;49.760;6.632;2022-10-16T07:43:50;14.70;99.90
28530;DHT22;15737;49.760;6.632;2022-10-16T07:46:16;14.50;99.90
28530;DHT22;15737;49.760;6.632;2022-10-16T07:48:43;14.40;99.90
28530;DHT22;15737;49.760;6.632;2022-10-16T07:51:12;14.40;99.90
28530;DHT22;15737;49.760;6.632;2022-10-16T07:53:56;14.40;99.90
28530;DHT22;15737;49.760;6.632;2022-10-16T07:56:22;14.30;99.90
28530;DHT22;15737;49.760;6.632;2022-10-16T07:58:47;14.30;99.90
28530;DHT22;15737;49.760;6.632;2022-10-16T08:01:16;14.30;99.90
28530;DHT22;15737;49.760;6.632;2022-10-16T08:03:43;14.30;99.90
28530;DHT22;15737;49.760;6.632;2022-10-16T08:06:09;14.40;99.90
28530;DHT22;15737;49.760;6.632;2022-10-16T08:08:48;14.40;99.90
28530;DHT22;15737;49.760;6.632;2022-10-16T08:11:13;14.40;99.90
28530;DHT22;15737;49.760;6.632;2022-10-16T08:13:40;14.40;99.90
28530;DHT22;15737;49.760;6.632;2022-10-16T08:16:06;14.50;99.90
28530;DHT22;15737;49.760;6.632;2022-10-16T08:18:34;14.60;99.90
28530;DHT22;15737;49.760;6.632;2022-10-16T08:21:01;14.80;99.90
28530;DHT22;15737;49.760;6.632;2022-10-16T08:23:27;15.00;99.90
28530;DHT22;15737;49.760;6.632;2022-10-16T08:25:55;15.00;99.90
28530;DHT22;15737;49.760;6.632;2022-10-16T08:28:21;15.00;99.90
28530;DHT22;15737;49.760;6.632;2022-10-16T08:30:47;14.90;99.90
28530;DHT22;15737;49.760;6.632;2022-10-16T08:33:13;14.80;99.90
28530;DHT22;15737;49.760;6.632;2022-10-16T08:35:39;14.80;99.90
28530;DHT22;15737;49.760;6.632;2022-10-16T08:38:06;14.90;99.90
28530;DHT22;15737;49.760;6.632;2022-10-16T08:40:33;14.90;99.90
28530;DHT22;15737;49.760;6.632;2022-10-16T08:48:56;15.10;99.90
28530;DHT22;15737;49.760;6.632;2022-10-16T08:51:26;15.40;99.90
28530;DHT22;15737;49.760;6.632;2022-10-16T08:53:57;15.80;99.90
28530;DHT22;15737;49.760;6.632;2022-10-16T08:56:38;16.20;99.90
28530;DHT22;15737;49.760;6.632;2022-10-16T08:59:06;16.50;99.90
28530;DHT22;15737;49.760;6.632;2022-10-16T09:01:45;16.50;99.90
28530;DHT22;15737;49.760;6.632;2022-10-16T09:07:18;16.30;99.90
28530;DHT22;15737;49.760;6.632;2022-10-16T09:09:53;16.20;99.90
28530;DHT22;15737;49.760;6.632;2022-10-16T09:12:36;16.30;99.90
28530;DHT22;15737;49.760;6.632;2022-10-16T09:15:13;16.30;99.90
28530;DHT22;15737;49.760;6.632;2022-10-16T09:17:55;16.40;99.90
28530;DHT22;15737;49.760;6.632;2022-10-16T09:20:49;16.60;99.90
28530;DHT22;15737;49.760;6.632;2022-10-16T09:23:22;16.90;99.90
28530;DHT22;15737;49.760;6.632;2022-10-16T09:25:50;17.10;99.90
28530;DHT22;15737;49.760;6.632;2022-10-16T09:28:17;17.00;99.90
28530;DHT22;15737;49.760;6.632;2022-10-16T09:30:42;16.80;99.90
28530;DHT22;15737;49.760;6.632;2022-10-16T09:33:10;16.60;99.90
28530;DHT22;15737;49.760;6.632;2022-10-16T09:35:44;16.60;99.90
28530;DHT22;15737;49.760;6.632;2022-10-16T09:38:22;16.50;99.90
28530;DHT22;15737;49.760;6.632;2022-10-16T09:40:48;16.60;99.90
28530;DHT22;15737;49.760;6.632;2022-10-16T09:48:36;17.50;99.90
28530;DHT22;15737;49.760;6.632;2022-10-16T09:51:04;17.60;99.90
28530;DHT22;15737;49.760;6.632;2022-10-16T09:53:41;17.90;99.90
28530;DHT22;15737;49.760;6.632;2022-10-16T09:56:10;18.10;99.90
28530;DHT22;15737;49.760;6.632;2022-10-16T09:58:57;18.70;99.90
28530;DHT22;15737;49.760;6.632;2022-10-16T10:01:29;20.10;99.90
28530;DHT22;15737;49.760;6.632;2022-10-16T10:03:57;20.90;99.90
28530;DHT22;15737;49.760;6.632;2022-10-16T10:06:29;22.80;99.90
28530;DHT22;15737;49.760;6.632;2022-10-16T10:14:08;23.10;99.90
28530;DHT22;15737;49.760;6.632;2022-10-16T10:16:52;23.30;99.90
28530;DHT22;15737;49.760;6.632;2022-10-16T10:19:27;23.20;99.90
28530;DHT22;15737;49.760;6.632;2022-10-16T10:21:52;22.60;99.90
28530;DHT22;15737;49.760;6.632;2022-10-16T10:24:19;22.40;99.90
28530;DHT22;15737;49.760;6.632;2022-10-16T10:30:15;22.30;99.90
28530;DHT22;15737;49.760;6.632;2022-10-16T10:38:27;23.10;99.90
28530;DHT22;15737;49.760;6.632;2022-10-16T10:46:32;21.60;99.90
28530;DHT22;15737;49.760;6.632;2022-10-16T10:49:26;20.70;99.90
28530;DHT22;15737;49.760;6.632;2022-10-16T10:52:41;19.70;99.90
28530;DHT22;15737;49.760;6.632;2022-10-16T10:55:26;20.00;99.90
28530;DHT22;15737;49.760;6.632;2022-10-16T11:04:05;20.70;99.90
28530;DHT22;15737;49.760;6.632;2022-10-16T11:09:20;20.80;99.90
28530;DHT22;15737;49.760;6.632;2022-10-16T11:11:55;20.90;99.90
28530;DHT22;15737;49.760;6.632;2022-10-16T11:14:46;21.00;99.90
28530;DHT22;15737;49.760;6.632;2022-10-16T11:17:30;20.50;99.90
28530;DHT22;15737;49.760;6.632;2022-10-16T11:22:45;19.60;99.90
28530;DHT22;15737;49.760;6.632;2022-10-16T11:25:24;19.30;99.90
28530;DHT22;15737;49.760;6.632;2022-10-16T11:28:11;19.40;99.90
28530;DHT22;15737;49.760;6.632;2022-10-16T11:30:53;19.50;99.90
28530;DHT22;15737;49.760;6.632;2022-10-16T11:33:28;19.50;99.90
28530;DHT22;15737;49.760;6.632;2022-10-16T11:39:29;19.40;99.90
28530;DHT22;15737;49.760;6.632;2022-10-16T11:47:40;19.00;99.90
28530;DHT22;15737;49.760;6.632;2022-10-16T11:50:27;19.30;99.90
28530;DHT22;15737;49.760;6.632;2022-10-16T11:53:02;19.60;99.90
28530;DHT22;15737;49.760;6.632;2022-10-16T11:55:43;20.00;99.90
28530;DHT22;15737;49.760;6.632;2022-10-16T11:58:27;20.30;99.90
28530;DHT22;15737;49.760;6.632;2022-10-16T12:06:40;20.60;99.90
28530;DHT22;15737;49.760;6.632;2022-10-16T12:09:21;20.50;99.90
28530;DHT22;15737;49.760;6.632;2022-10-16T12:11:47;20.20;99.90
28530;DHT22;15737;49.760;6.632;2022-10-16T12:14:20;20.30;99.90
28530;DHT22;15737;49.760;6.632;2022-10-16T12:16:55;20.30;99.90
28530;DHT22;15737;49.760;6.632;2022-10-16T12:19:23;20.50;99.90
28530;DHT22;15737;49.760;6.632;2022-10-16T12:21:51;20.40;99.90
28530;DHT22;15737;49.760;6.632;2022-10-16T12:24:41;20.10;99.90
28530;DHT22;15737;49.760;6.632;2022-10-16T12:27:30;19.70;99.90
28530;DHT22;15737;49.760;6.632;2022-10-16T12:29:59;19.40;99.90
28530;DHT22;15737;49.760;6.632;2022-10-16T12:32:32;19.20;99.90
28530;DHT22;15737;49.760;6.632;2022-10-16T12:35:00;19.10;99.90
28530;DHT22;15737;49.760;6.632;2022-10-16T12:37:35;19.10;99.90
28530;DHT22;15737;49.760;6.632;2022-10-16T12:42:47;18.90;99.90
28530;DHT22;15737;49.760;6.632;2022-10-16T12:47:56;19.40;99.90
28530;DHT22;15737;49.760;6.632;2022-10-16T12:50:35;19.70;99.90
28530;DHT22;15737;49.760;6.632;2022-10-16T12:53:02;19.80;99.90
28530;DHT22;15737;49.760;6.632;2022-10-16T13:01:10;19.70;99.90
28530;DHT22;15737;49.760;6.632;2022-10-16T13:15:11;19.10;99.90
28530;DHT22;15737;49.760;6.632;2022-10-16T13:24:05;20.60;99.90
28530;DHT22;15737;49.760;6.632;2022-10-16T13:26:43;21.20;99.90
28530;DHT22;15737;49.760;6.632;2022-10-16T13:29:10;21.70;99.90
28530;DHT22;15737;49.760;6.632;2022-10-16T13:31:38;22.00;99.90
28530;DHT22;15737;49.760;6.632;2022-10-16T13:34:05;22.20;99.90
28530;DHT22;15737;49.760;6.632;2022-10-16T13:36:43;22.20;99.90
28530;DHT22;15737;49.760;6.632;2022-10-16T13:41:37;22.30;99.90
28530;DHT22;15737;49.760;6.632;2022-10-16T13:44:04;22.30;99.90
28530;DHT22;15737;49.760;6.632;2022-10-16T13:49:12;22.10;99.90
28530;DHT22;15737;49.760;6.632;2022-10-16T13:51:37;21.30;99.90
28530;DHT22;15737;49.760;6.632;2022-10-16T13:54:03;20.80;99.90
28530;DHT22;15737;49.760;6.632;2022-10-16T13:56:31;20.30;99.90
28530;DHT22;15737;49.760;6.632;2022-10-16T13:59:05;20.10;99.90
28530;DHT22;15737;49.760;6.632;2022-10-16T14:04:07;19.50;99.90
28530;DHT22;15737;49.760;6.632;2022-10-16T14:06:33;19.30;99.90
28530;DHT22;15737;49.760;6.632;2022-10-16T14:11:58;19.10;99.90
28530;DHT22;15737;49.760;6.632;2022-10-16T14:14:27;19.30;99.90
28530;DHT22;15737;49.760;6.632;2022-10-16T14:16:56;19.50;99.90
28530;DHT22;15737;49.760;6.632;2022-10-16T14:21:56;19.70;99.90
28530;DHT22;15737;49.760;6.632;2022-10-16T14:24:26;19.80;99.90
28530;DHT22;15737;49.760;6.632;2022-10-16T14:26:52;19.80;99.90
28530;DHT22;15737;49.760;6.632;2022-10-16T14:29:20;19.90;99.90
28530;DHT22;15737;49.760;6.632;2022-10-16T14:32:00;19.90;99.90
28530;DHT22;15737;49.760;6.632;2022-10-16T14:36:57;19.80;99.90
28530;DHT22;15737;49.760;6.632;2022-10-16T14:39:24;19.90;99.90
28530;DHT22;15737;49.760;6.632;2022-10-16T14:41:51;20.00;99.90
28530;DHT22;15737;49.760;6.632;2022-10-16T14:44:18;20.10;99.90
28530;DHT22;15737;49.760;6.632;2022-10-16T14:46:45;20.20;99.90
28530;DHT22;15737;49.760;6.632;2022-10-16T14:49:18;20.20;99.90
28530;DHT22;15737;49.760;6.632;2022-10-16T14:51:57;20.10;99.90
28530;DHT22;15737;49.760;6.632;2022-10-16T14:54:23;20.00;99.90
28530;DHT22;15737;49.760;6.632;2022-10-16T14:56:54;19.90;99.90
28530;DHT22;15737;49.760;6.632;2022-10-16T14:59:36;19.80;99.90
28530;DHT22;15737;49.760;6.632;2022-10-16T15:04:46;19.70;99.90
28530;DHT22;15737;49.760;6.632;2022-10-16T15:09:47;19.70;99.90
28530;DHT22;15737;49.760;6.632;2022-10-16T15:12:13;19.70;99.90
28530;DHT22;15737;49.760;6.632;2022-10-16T15:14:38;19.70;99.90
28530;DHT22;15737;49.760;6.632;2022-10-16T15:17:04;19.80;99.90
28530;DHT22;15737;49.760;6.632;2022-10-16T15:19:30;19.70;99.90
28530;DHT22;15737;49.760;6.632;2022-10-16T15:21:56;19.70;99.90
28530;DHT22;15737;49.760;6.632;2022-10-16T15:24:21;19.60;99.90
28530;DHT22;15737;49.760;6.632;2022-10-16T15:26:47;19.50;99.90
28530;DHT22;15737;49.760;6.632;2022-10-16T15:29:13;19.50;99.90
28530;DHT22;15737;49.760;6.632;2022-10-16T15:31:38;19.50;99.90
28530;DHT22;15737;49.760;6.632;2022-10-16T15:36:40;19.40;99.90
28530;DHT22;15737;49.760;6.632;2022-10-16T15:39:15;19.40;99.90
28530;DHT22;15737;49.760;6.632;2022-10-16T15:41:41;19.30;99.90
28530;DHT22;15737;49.760;6.632;2022-10-16T15:44:07;19.20;99.90
28530;DHT22;15737;49.760;6.632;2022-10-16T15:46:33;19.20;99.90
28530;DHT22;15737;49.760;6.632;2022-10-16T15:49:08;19.10;99.90
28530;DHT22;15737;49.760;6.632;2022-10-16T15:51:38;19.10;99.90
28530;DHT22;15737;49.760;6.632;2022-10-16T15:54:04;18.90;99.90
28530;DHT22;15737;49.760;6.632;2022-10-16T15:56:29;18.80;99.90
28530;DHT22;15737;49.760;6.632;2022-10-16T15:58:58;18.70;99.90
28530;DHT22;15737;49.760;6.632;2022-10-16T16:01:24;18.70;99.90
28530;DHT22;15737;49.760;6.632;2022-10-16T16:06:35;18.40;99.90
28530;DHT22;15737;49.760;6.632;2022-10-16T16:09:02;18.30;99.90
28530;DHT22;15737;49.760;6.632;2022-10-16T16:11:28;18.30;99.90
28530;DHT22;15737;49.760;6.632;2022-10-16T16:13:53;18.30;99.90
28530;DHT22;15737;49.760;6.632;2022-10-16T16:16:20;18.30;99.90
28530;DHT22;15737;49.760;6.632;2022-10-16T16:18:46;18.20;99.90
28530;DHT22;15737;49.760;6.632;2022-10-16T16:21:13;18.10;99.90
28530;DHT22;15737;49.760;6.632;2022-10-16T16:23:39;17.90;99.90
28530;DHT22;15737;49.760;6.632;2022-10-16T16:26:22;17.60;99.90
28530;DHT22;15737;49.760;6.632;2022-10-16T16:28:51;17.40;99.90
28530;DHT22;15737;49.760;6.632;2022-10-16T16:31:17;17.10;99.90
28530;DHT22;15737;49.760;6.632;2022-10-16T16:33:42;16.80;99.90
28530;DHT22;15737;49.760;6.632;2022-10-16T16:36:08;16.60;99.90
28530;DHT22;15737;49.760;6.632;2022-10-16T16:38:34;16.40;99.90
28530;DHT22;15737;49.760;6.632;2022-10-16T16:41:10;16.20;99.90
28530;DHT22;15737;49.760;6.632;2022-10-16T16:43:35;16.00;99.90
28530;DHT22;15737;49.760;6.632;2022-10-16T16:46:01;15.90;99.90
28530;DHT22;15737;49.760;6.632;2022-10-16T16:48:27;15.80;99.90
28530;DHT22;15737;49.760;6.632;2022-10-16T16:50:52;15.60;99.90
28530;DHT22;15737;49.760;6.632;2022-10-16T16:53:18;15.50;99.90
28530;DHT22;15737;49.760;6.632;2022-10-16T16:55:43;15.40;99.90
28530;DHT22;15737;49.760;6.632;2022-10-16T16:58:09;15.40;99.90
28530;DHT22;15737;49.760;6.632;2022-10-16T17:00:34;15.30;99.90
28530;DHT22;15737;49.760;6.632;2022-10-16T17:03:00;15.20;99.90
28530;DHT22;15737;49.760;6.632;2022-10-16T17:05:25;15.10;99.90
28530;DHT22;15737;49.760;6.632;2022-10-16T17:07:51;15.10;99.90
28530;DHT22;15737;49.760;6.632;2022-10-16T17:10:16;15.00;99.90
28530;DHT22;15737;49.760;6.632;2022-10-16T17:12:48;14.90;99.90
28530;DHT22;15737;49.760;6.632;2022-10-16T17:15:15;14.90;99.90
28530;DHT22;15737;49.760;6.632;2022-10-16T17:17:41;14.90;99.90
28530;DHT22;15737;49.760;6.632;2022-10-16T17:20:07;14.80;99.90
28530;DHT22;15737;49.760;6.632;2022-10-16T17:22:34;14.80;99.90
28530;DHT22;15737;49.760;6.632;2022-10-16T17:24:59;14.80;99.90
28530;DHT22;15737;49.760;6.632;2022-10-16T17:27:27;14.70;99.90
28530;DHT22;15737;49.760;6.632;2022-10-16T17:29:52;14.70;99.90
28530;DHT22;15737;49.760;6.632;2022-10-16T17:32:18;14.60;99.90
28530;DHT22;15737;49.760;6.632;2022-10-16T17:34:45;14.60;99.90
28530;DHT22;15737;49.760;6.632;2022-10-16T17:37:11;14.50;99.90
28530;DHT22;15737;49.760;6.632;2022-10-16T17:42:13;14.50;99.90
28530;DHT22;15737;49.760;6.632;2022-10-16T17:44:39;14.50;99.90
28530;DHT22;15737;49.760;6.632;2022-10-16T17:47:04;14.40;99.90
28530;DHT22;15737;49.760;6.632;2022-10-16T17:49:30;14.40;99.90
28530;DHT22;15737;49.760;6.632;2022-10-16T17:51:55;14.40;99.90
28530;DHT22;15737;49.760;6.632;2022-10-16T17:54:21;14.40;99.90
28530;DHT22;15737;49.760;6.632;2022-10-16T17:56:46;14.40;99.90
28530;DHT22;15737;49.760;6.632;2022-10-16T17:59:13;14.40;99.90
28530;DHT22;15737;49.760;6.632;2022-10-16T18:01:39;14.40;99.90
28530;DHT22;15737;49.760;6.632;2022-10-16T18:04:12;14.40;99.90
28530;DHT22;15737;49.760;6.632;2022-10-16T18:09:07;14.40;99.90